Maersk Weymouth — VRFS9 — position and weather

sailwx.info

Track history (hours):
 
Tides and Currents Weather Stations Pressure Air Temp Water Temp Dewpoint Dewpoint Depression Visibility Wind Speed Wind Dir Waves Ship Positions

Maersk Weymouth

Last reported at 2017-Nov-19 04:43 UTC. Time now 2017-Nov-21 01:07 UTC.
Position N 36°49' W 075°47'.

Length 175 m; draft 7 m.

Type: Cargo ship. MMSI: 477622100.

Date/timePositionNaut miles runAvg speedWind from/ knotsBaromVisibWave heightAir tempDewpointWater temp
2017-Nov-19 04:43N 36°49' W 075°47'3 9.4
2017-Nov-19 04:24N 36°51' W 075°50'3 7.3
2017-Nov-19 04:00N 36°52' W 075°53'3 5.4
2017-Nov-19 03:30N 36°54' W 075°55'3 5.5
2017-Nov-19 03:00N 36°56' W 075°57'4 7.4
2017-Nov-19 02:30N 36°57' W 076°02'714.6
2017-Nov-19 02:00N 36°59' W 076°10'813.7
2017-Nov-19 01:27N 36°58' W 076°20'410.0
2017-Nov-19 01:00N 36°54' W 076°20'2 4.9
2017-Nov-19 00:30N 36°51' W 076°20'0 0.0
2017-Nov-19 00:00N 36°51' W 076°20'0 0.0
2017-Nov-18 23:30N 36°51' W 076°20'0 0.0
2017-Nov-18 22:58N 36°51' W 076°20'0 0.0
2017-Nov-18 22:28N 36°51' W 076°20'0 0.0
2017-Nov-18 21:58N 36°51' W 076°20'0 0.0
2017-Nov-18 21:28N 36°51' W 076°20'0 0.0
2017-Nov-18 20:58N 36°51' W 076°20'0 0.0
2017-Nov-18 20:28N 36°51' W 076°20'0 0.0
2017-Nov-18 19:58N 36°51' W 076°20'0 0.0
2017-Nov-18 19:28N 36°51' W 076°20'0 0.0
2017-Nov-18 18:58N 36°51' W 076°20'0 0.0
2017-Nov-18 18:28N 36°51' W 076°20'0 0.0
2017-Nov-18 17:58N 36°51' W 076°20'0 0.0
2017-Nov-18 17:28N 36°51' W 076°20'0 0.0
2017-Nov-18 16:55N 36°51' W 076°20'0 0.0
2017-Nov-18 16:28N 36°51' W 076°20'0 0.0
2017-Nov-18 15:58N 36°51' W 076°20'0 0.0
2017-Nov-18 15:28N 36°51' W 076°20'0 0.0
2017-Nov-18 14:58N 36°51' W 076°20'0 0.0
2017-Nov-18 14:28N 36°51' W 076°20'0 0.0
2017-Nov-18 13:58N 36°51' W 076°20'0 0.0
2017-Nov-18 13:28N 36°51' W 076°20'0 0.0
2017-Nov-18 12:58N 36°51' W 076°20'0 0.0
2017-Nov-18 12:28N 36°51' W 076°20'0 0.0
2017-Nov-18 11:58N 36°51' W 076°20'0 0.0
2017-Nov-18 11:25N 36°51' W 076°20'0 0.0
2017-Nov-18 10:58N 36°51' W 076°20'1 1.1
2017-Nov-18 10:30N 36°52' W 076°19'3 5.2
2017-Nov-18 10:00N 36°54' W 076°20'5 9.8
2017-Nov-18 09:30N 36°59' W 076°19'713.3
2017-Nov-18 09:00N 36°60' W 076°11'815.5
2017-Nov-18 08:30N 36°57' W 076°02'510.3
2017-Nov-18 08:00N 36°56' W 075°56'3 6.6
2017-Nov-18 07:30N 36°54' W 075°53'3 5.8
2017-Nov-18 07:00N 36°52' W 075°50'4 6.8
2017-Nov-18 06:21N 36°49' W 075°45'191 6.5
2017-Nov-17 00:53N 34°12' W 077°57'0 0.0
2017-Nov-16 16:29N 34°12' W 077°57'43914.9
2017-Nov-15 10:58N 27°02' W 079°45'1017.8
2017-Nov-15 10:23N 26°52' W 079°46'716.4
2017-Nov-15 09:58N 26°45' W 079°47'917.3
2017-Nov-15 09:28N 26°36' W 079°48'818.0
2017-Nov-15 09:00N 26°28' W 079°50'918.9
2017-Nov-15 08:30N 26°19' W 079°52'918.4
2017-Nov-15 08:00N 26°11' W 079°57'816.7
2017-Nov-15 07:30N 26°05' W 080°03'4 7.2
2017-Nov-15 07:00N 26°06' W 080°07'1 2.3
2017-Nov-15 06:30N 26°04' W 080°07'0 0.0
2017-Nov-15 06:00N 26°04' W 080°07'0 0.0
2017-Nov-15 05:25N 26°04' W 080°07'0 0.0
2017-Nov-15 04:58N 26°04' W 080°07'0 0.0
2017-Nov-15 04:28N 26°04' W 080°07'0 0.0
2017-Nov-15 03:55N 26°04' W 080°07'0 0.0
2017-Nov-15 03:28N 26°04' W 080°07'0 0.0
2017-Nov-15 02:58N 26°04' W 080°07'0 0.0
2017-Nov-15 02:28N 26°04' W 080°07'0 0.0
2017-Nov-15 01:58N 26°04' W 080°07'0 0.0
2017-Nov-15 01:28N 26°04' W 080°07'0 0.0
2017-Nov-15 00:58N 26°04' W 080°07'0 0.0
2017-Nov-15 00:28N 26°04' W 080°07'0 0.0
2017-Nov-14 23:58N 26°04' W 080°07'0 0.0
2017-Nov-14 23:28N 26°04' W 080°07'0 0.0
2017-Nov-14 22:55N 26°04' W 080°07'1 3.1
2017-Nov-14 22:30N 26°06' W 080°07'4 8.5
2017-Nov-14 22:00N 26°05' W 080°02'5 9.8
2017-Nov-14 21:30N 26°02' W 079°58'3 5.1
2017-Nov-14 21:00N 25°59' W 079°57'4 7.7
2017-Nov-14 20:30N 25°56' W 079°55'611.6
2017-Nov-14 20:00N 25°51' W 079°52'713.3
2017-Nov-14 19:30N 25°46' W 079°47'713.6
2017-Nov-14 19:00N 25°41' W 079°42'714.0
2017-Nov-14 18:30N 25°35' W 079°37'714.5
2017-Nov-14 17:59N 25°29' W 079°32'  
Track history (hours):
 
Tides and Currents Weather Stations Pressure Air Temp Water Temp Dewpoint Dewpoint Depression Visibility Wind Speed Wind Dir Waves Ship Positions

Maersk Weymouth

Last reported at 2017-Nov-19 04:43 UTC. Time now 2017-Nov-21 01:07 UTC.
Position N 36°49' W 075°47'.

Length 175 m; draft 7 m.

Type: Cargo ship. MMSI: 477622100.

Date/timePositionNaut miles runAvg speedWind from/ knotsBaromVisibWave heightAir tempDewpointWater temp
2017-Nov-19 04:43N 36°49' W 075°47'3 9.4
2017-Nov-19 04:24N 36°51' W 075°50'3 7.3
2017-Nov-19 04:00N 36°52' W 075°53'3 5.4
2017-Nov-19 03:30N 36°54' W 075°55'3 5.5
2017-Nov-19 03:00N 36°56' W 075°57'4 7.4
2017-Nov-19 02:30N 36°57' W 076°02'714.6
2017-Nov-19 02:00N 36°59' W 076°10'813.7
2017-Nov-19 01:27N 36°58' W 076°20'410.0
2017-Nov-19 01:00N 36°54' W 076°20'2 4.9
2017-Nov-19 00:30N 36°51' W 076°20'0 0.0
2017-Nov-19 00:00N 36°51' W 076°20'0 0.0
2017-Nov-18 23:30N 36°51' W 076°20'0 0.0
2017-Nov-18 22:58N 36°51' W 076°20'0 0.0
2017-Nov-18 22:28N 36°51' W 076°20'0 0.0
2017-Nov-18 21:58N 36°51' W 076°20'0 0.0
2017-Nov-18 21:28N 36°51' W 076°20'0 0.0
2017-Nov-18 20:58N 36°51' W 076°20'0 0.0
2017-Nov-18 20:28N 36°51' W 076°20'0 0.0
2017-Nov-18 19:58N 36°51' W 076°20'0 0.0
2017-Nov-18 19:28N 36°51' W 076°20'0 0.0
2017-Nov-18 18:58N 36°51' W 076°20'0 0.0
2017-Nov-18 18:28N 36°51' W 076°20'0 0.0
2017-Nov-18 17:58N 36°51' W 076°20'0 0.0
2017-Nov-18 17:28N 36°51' W 076°20'0 0.0
2017-Nov-18 16:55N 36°51' W 076°20'0 0.0
2017-Nov-18 16:28N 36°51' W 076°20'0 0.0
2017-Nov-18 15:58N 36°51' W 076°20'0 0.0
2017-Nov-18 15:28N 36°51' W 076°20'0 0.0
2017-Nov-18 14:58N 36°51' W 076°20'0 0.0
2017-Nov-18 14:28N 36°51' W 076°20'0 0.0
2017-Nov-18 13:58N 36°51' W 076°20'0 0.0
2017-Nov-18 13:28N 36°51' W 076°20'0 0.0
2017-Nov-18 12:58N 36°51' W 076°20'0 0.0
2017-Nov-18 12:28N 36°51' W 076°20'0 0.0
2017-Nov-18 11:58N 36°51' W 076°20'0 0.0
2017-Nov-18 11:25N 36°51' W 076°20'0 0.0
2017-Nov-18 10:58N 36°51' W 076°20'1 1.1
2017-Nov-18 10:30N 36°52' W 076°19'3 5.2
2017-Nov-18 10:00N 36°54' W 076°20'5 9.8
2017-Nov-18 09:30N 36°59' W 076°19'713.3
2017-Nov-18 09:00N 36°60' W 076°11'815.5
2017-Nov-18 08:30N 36°57' W 076°02'510.3
2017-Nov-18 08:00N 36°56' W 075°56'3 6.6
2017-Nov-18 07:30N 36°54' W 075°53'3 5.8
2017-Nov-18 07:00N 36°52' W 075°50'4 6.8
2017-Nov-18 06:21N 36°49' W 075°45'191 6.5
2017-Nov-17 00:53N 34°12' W 077°57'0 0.0
2017-Nov-16 16:29N 34°12' W 077°57'43914.9
2017-Nov-15 10:58N 27°02' W 079°45'1017.8
2017-Nov-15 10:23N 26°52' W 079°46'716.4
2017-Nov-15 09:58N 26°45' W 079°47'917.3
2017-Nov-15 09:28N 26°36' W 079°48'818.0
2017-Nov-15 09:00N 26°28' W 079°50'918.9
2017-Nov-15 08:30N 26°19' W 079°52'918.4
2017-Nov-15 08:00N 26°11' W 079°57'816.7
2017-Nov-15 07:30N 26°05' W 080°03'4 7.2
2017-Nov-15 07:00N 26°06' W 080°07'1 2.3
2017-Nov-15 06:30N 26°04' W 080°07'0 0.0
2017-Nov-15 06:00N 26°04' W 080°07'0 0.0
2017-Nov-15 05:25N 26°04' W 080°07'0 0.0
2017-Nov-15 04:58N 26°04' W 080°07'0 0.0
2017-Nov-15 04:28N 26°04' W 080°07'0 0.0
2017-Nov-15 03:55N 26°04' W 080°07'0 0.0
2017-Nov-15 03:28N 26°04' W 080°07'0 0.0
2017-Nov-15 02:58N 26°04' W 080°07'0 0.0
2017-Nov-15 02:28N 26°04' W 080°07'0 0.0
2017-Nov-15 01:58N 26°04' W 080°07'0 0.0
2017-Nov-15 01:28N 26°04' W 080°07'0 0.0
2017-Nov-15 00:58N 26°04' W 080°07'0 0.0
2017-Nov-15 00:28N 26°04' W 080°07'0 0.0
2017-Nov-14 23:58N 26°04' W 080°07'0 0.0
2017-Nov-14 23:28N 26°04' W 080°07'0 0.0
2017-Nov-14 22:55N 26°04' W 080°07'1 3.1
2017-Nov-14 22:30N 26°06' W 080°07'4 8.5
2017-Nov-14 22:00N 26°05' W 080°02'5 9.8
2017-Nov-14 21:30N 26°02' W 079°58'3 5.1
2017-Nov-14 21:00N 25°59' W 079°57'4 7.7
2017-Nov-14 20:30N 25°56' W 079°55'611.6
2017-Nov-14 20:00N 25°51' W 079°52'713.3
2017-Nov-14 19:30N 25°46' W 079°47'713.6
2017-Nov-14 19:00N 25°41' W 079°42'714.0
2017-Nov-14 18:30N 25°35' W 079°37'714.5
2017-Nov-14 17:59N 25°29' W 079°32'  

Dump ship's entire track history